createdAt,value
2018-12-12T00:01:30.446Z,45.96
2018-12-12T00:02:30.166Z,47.39
2018-12-12T00:04:24.056Z,50.07
2018-12-12T00:05:23.155Z,48.44
2018-12-12T00:07:16.425Z,42.81
2018-12-12T00:08:16.193Z,45.29
2018-12-12T00:10:09.173Z,44.53
2018-12-12T00:11:09.176Z,42.61
2018-12-12T00:14:33.974Z,42.61
2018-12-12T00:15:33.834Z,43.86
2018-12-12T00:17:26.821Z,42.33
2018-12-12T00:18:26.847Z,44.34
2018-12-12T00:20:19.930Z,42.14
2018-12-12T00:21:19.893Z,39.18
2018-12-12T00:23:12.852Z,41.18
2018-12-12T00:24:12.919Z,36.50
2018-12-12T00:26:06.388Z,42.24
2018-12-12T00:27:06.300Z,40.52
2018-12-12T00:28:59.131Z,38.41
2018-12-12T00:29:59.398Z,38.79
2018-12-12T00:33:24.502Z,40.89
2018-12-12T00:34:24.535Z,38.89
2018-12-12T00:36:17.459Z,38.32
2018-12-12T00:37:17.908Z,40.13
2018-12-12T00:40:42.681Z,40.13
2018-12-12T00:41:43.280Z,42.14
2018-12-12T00:43:36.101Z,44.24
2018-12-12T00:44:36.584Z,43.38
2018-12-12T00:46:30.340Z,44.62
2018-12-12T00:47:31.250Z,46.92
2018-12-12T00:49:25.675Z,44.91
2018-12-12T00:50:25.267Z,43.95
2018-12-12T00:52:19.007Z,43.95
2018-12-12T00:53:20.881Z,46.72
2018-12-12T00:55:15.113Z,44.34
2018-12-12T00:56:15.790Z,38.10
2018-12-12T00:58:10.638Z,37.07
2018-12-12T01:00:14.178Z,48.35
2018-12-12T01:01:16.233Z,46.92
2018-12-12T01:03:12.610Z,47.47
